Skip Navigation Links
NOAA logo - Click to go to the NOAA homepage
NOAA's National Weather Service
Alaska Aviation Weather Unit
  NWS logo - Click to go to the NWS homepage
Left Navbar Graphic     23 AKDT = 07 GMT

   
NOAA is celebrating 200 years of science, service, and stewardship. Visit the NOAA 200th celebration Web site to learn more.
USA.gov is the U.S. Government's official Web portal to all Federal, state and local government Web resources and services.
Facebook
NWS on Facebook

Important Change Regarding the AAWU Web Presence

 

Over the last several months, the AAWU has been working to navigate its webpages to a nationally supported server. Security, as well as other needs, have necessitated the change.  In the process, we have made an effort to enhance the functionality of our website, as well as some of our products. As of June 20, 2017, aawu.arh.noaa.gov will be discontinued. The new AAWU web address is weather.gov/aawu. It is now live and will run in-parallel with the old site until it is discontinued. Please send any feedback or questions regarding the new webpages to nws.ar.aawu.webauthors@noaa.gov.  Thank you for your patience during this time of transition.
AAWU Home :: Display TAF Add Bookmark
TAF PADU 240530Z 2406/2506 20011G18KT P6SM -RA BKN025 OVC035
     FM240800 24015G23KT P6SM VCSH SCT025 BKN035=

METAR PADU 240156Z 22013KT 10SM BKN034 OVC042 09/04 A2982 RMK AO2 RAE24 SLP097 RH P0000 T00940044= SPECI PADU 240209Z 24012KT 10SM OVC025 09/04 A2982 RMK AO2 EM= METAR PADU 240256Z 26008KT 10SM -RA BKN022 OVC030 08/05 A2983 RMK AO2 RAB31 SLP103 EM P0000 60000 T00830050 53003= SPECI PADU 240353Z 21014G19KT 10SM FEW024 SCT046 OVC065 09/03 A2983 RMK AO2 RAE17 EM P0000= METAR PADU 240356Z 22015G19KT 10SM FEW024 SCT049 OVC065 09/03 A2983 RMK AO2 RAE17 SLP102 EM P0000 T00890033= SPECI PADU 240448Z VRB06KT 10SM FEW017 BKN024 OVC034 08/03 A2986 RMK AO2 EM= METAR PADU 240456Z 19011G18KT 10SM FEW017 BKN024 OVC034 07/03 A2986 RMK AO2 SLP113 LAST EM T00720028= METAR PADU 240556Z AUTO 23009KT 10SM SCT024 OVC030 07/02 A2988 RMK AO2 RAB00E30 SLP120 P0000 60000 T00670022 10100 20067 51018= METAR PADU 240656Z AUTO 25011KT 10SM FEW028 BKN034 OVC060 07/01 A2991 RMK AO2 SLP129 T00670011=
 Alaska TAF Map

NOAA's National Weather Service
Alaska Aviation Weather Unit
6930 Sand Lake Road
Anchorage, AK 99502-1845
Disclaimer
Credits
Glossary
Privacy Policy
About Us
Career Opportunities
Contact AAWU Internet Services Site last modified: April, 17th 2012